Airfield :
LOGIN :

Register | Disclaimer

   EN    FR    IT 

 










Legend :    VFR   Marginal VFR   IFR   Intensive IFR   Very Intensive IFR
Visi :
Ceiling :
>= 8 km
>= 3000ft
5 to 8 km
1000 to 3000 ft
1500m to 5 km
500 to 1000 ft
800 to 1500m
200 to 500 ft
< 800m
< 200 ft
Symbols :   Thunderstorms  Fog  Heavy snow  Heavy precipitations  Wind > 20 kt
SIGMETs :     Misc.  Thunderstorms  Icing  Turbulence  Mountain Waves  Volcanic Ashes







- Airport Elevation : 46 ft
- IATA code : SNN


EINN - Shannon

CURRENT METAR :
  • 180700Z 11004KT 0200 R24/0375N R06/0375N FG OVC001 03/03 Q1030 NOSIG

EXPIRED METARs :
  • 180630Z 13002KT 0200 R24/0400N R06/0400N FG OVC001 02/02 Q1030 NOSIG
  • 180600Z 09002KT 0200 R24/0350D R06/0350N FG OVC001 02/02 Q1030 NOSIG
  • 180530Z 10002KT 0200 R24/1000D R06/0400N FG OVC001 03/03 Q1029 NOSIG
  • 180500Z 10002KT 0200 R24/0500D R06/0400 FG OVC001 03/02 Q1029 NOSIG

TAF TAF EINN
Valid from the 18 at 06:00 until the 19 at 06:00 UTC


180500Z 1806/1906 13005KT 0200 FG BKN001
TEMPO 1808/1810 3000 BR SCT005
BECMG 1810/1812 9999 NSW SCT020
BECMG 1812/1815 17010KT
BECMG 1904/1906 BKN014
No reported NOTAMs for that airfield.



MET'MAP, your aeronautical weather chart ! - Copyright ORBIFLY December 2007 - Disclaimer

ORBIFLY MET'MAP TEAM :

Programming & Development : Alexandra Zaïnal
Concept & Development : Baudouin d'Aumeries
Co-Development & Prog : Marc-Olivier Méhu
Technical & hardware support : Manuel Goepfert

Contact : metmap@orbifly.com




SOURCES & CREDITS :

   NOAA